Time;durP1;ratioP1;P1;durP2;ratioP2;P2;SDS_P1;SDS_P2;PMS_P1;PMS_P2;Temp;Humidity;BMP_temperature;BMP_pressure;BME280_temperature;BME280_humidity;BME280_pressure;Samples;Min_cycle;Max_cycle;Signal;HPM_P1;HPM_P2
2022/06/20 00:00:22;;;;;;;3.92;3.53;;;;;;;22.90;100.00;101071.19;5141348;27;20027;-73
2022/06/20 00:03:22;;;;;;;3.40;3.03;;;;;;;22.76;100.00;101062.31;5143007;27;20142;-75
2022/06/20 00:06:13;;;;;;;4.35;3.00;;;;;;;22.64;100.00;101061.28;5138934;27;20019;-75
2022/06/20 00:08:58;;;;;;;3.80;3.35;;;;;;;22.86;100.00;101055.44;5138324;27;20031;-75
2022/06/20 00:11:48;;;;;;;5.50;3.00;;;;;;;22.80;100.00;101047.81;5139987;27;20034;-76
2022/06/20 00:14:33;;;;;;;4.00;3.38;;;;;;;22.53;100.00;101050.38;5138801;27;20095;-74
2022/06/20 00:17:20;;;;;;;4.15;3.00;;;;;;;22.60;100.00;101048.19;5138087;27;20050;-75
2022/06/20 00:20:06;;;;;;;5.28;3.30;;;;;;;22.39;100.00;101047.63;5122663;27;20050;-75
2022/06/20 00:22:53;;;;;;;4.68;3.40;;;;;;;22.27;100.00;101035.03;5137475;27;20091;-75
2022/06/20 00:25:39;;;;;;;5.75;3.40;;;;;;;22.36;100.00;101029.16;5136175;27;20031;-74
2022/06/20 00:28:25;;;;;;;6.03;3.63;;;;;;;22.60;100.00;101033.03;5100707;28;20019;-74
2022/06/20 00:31:12;;;;;;;5.53;3.45;;;;;;;22.42;100.00;101025.25;5115732;28;20019;-73
2022/06/20 00:33:58;;;;;;;5.20;3.40;;;;;;;22.50;100.00;101023.84;5101430;28;20023;-75
2022/06/20 00:36:43;;;;;;;6.45;3.78;;;;;;;22.10;100.00;101023.69;5101597;28;20053;-74
2022/06/20 00:39:29;;;;;;;4.75;3.50;;;;;;;22.02;100.00;101021.44;5116767;28;20037;-75
2022/06/20 00:42:16;;;;;;;7.13;3.40;;;;;;;21.99;100.00;101010.94;5115564;28;20027;-74
2022/06/20 00:45:05;;;;;;;5.70;3.50;;;;;;;21.96;100.00;101015.63;5115849;28;20027;-74
2022/06/20 00:47:56;;;;;;;3.95;3.50;;;;;;;22.26;100.00;101011.97;5101187;28;20023;-74
2022/06/20 00:50:45;;;;;;;6.20;3.55;;;;;;;22.34;100.00;101015.03;5101001;28;20023;-75
2022/06/20 00:53:42;;;;;;;4.13;3.55;;;;;;;22.20;100.00;101008.81;5101778;28;20444;-74
2022/06/20 00:56:38;;;;;;;8.52;3.50;;;;;;;22.16;100.00;101007.28;5116795;28;20055;-75
2022/06/20 00:59:31;;;;;;;6.28;3.75;;;;;;;21.82;100.00;101003.09;5101461;28;20035;-75
2022/06/20 01:02:24;;;;;;;5.10;3.75;;;;;;;21.74;100.00;100999.19;5116310;28;20027;-74
2022/06/20 01:05:34;;;;;;;4.40;3.70;;;;;;;22.09;100.00;100992.59;5115226;28;20027;-73
2022/06/20 01:08:25;;;;;;;4.20;3.80;;;;;;;21.99;100.00;100994.09;5115979;28;20333;-75
2022/06/20 01:11:22;;;;;;;7.00;4.03;;;;;;;21.90;100.00;100997.31;5101125;28;20395;-75
2022/06/20 01:14:26;;;;;;;5.97;4.05;;;;;;;21.78;100.00;100993.56;5100665;28;20020;-76
2022/06/20 01:17:24;;;;;;;12.88;4.20;;;;;;;21.50;100.00;100998.75;5100139;28;20023;-75
2022/06/20 01:20:19;;;;;;;5.53;4.05;;;;;;;21.24;100.00;100998.53;5115809;28;20030;-76
2022/06/20 01:23:16;;;;;;;7.25;4.32;;;;;;;21.29;100.00;100996.44;5115098;28;20040;-76
2022/06/20 01:26:25;;;;;;;5.72;4.15;;;;;;;21.61;100.00;101007.00;5105064;27;20142;-76
2022/06/20 01:29:12;;;;;;;7.50;4.00;;;;;;;21.58;100.00;101007.16;5136759;27;20034;-75
2022/06/20 01:31:59;;;;;;;5.35;4.57;;;;;;;21.21;100.00;101010.22;5136972;27;20031;-75
2022/06/20 01:34:45;;;;;;;6.85;4.13;;;;;;;21.10;100.00;101009.13;5121683;27;20051;-76
2022/06/20 01:37:37;;;;;;;5.28;4.40;;;;;;;21.04;100.00;101004.09;5136515;27;20050;-76
2022/06/20 01:40:22;;;;;;;7.78;4.20;;;;;;;20.91;100.00;101003.03;5135931;27;20114;-74
2022/06/20 01:43:08;;;;;;;6.93;4.10;;;;;;;21.14;100.00;100995.50;5136475;27;20555;-75
2022/06/20 01:45:58;;;;;;;8.40;4.60;;;;;;;21.36;100.00;100997.81;5119490;27;20054;-74
2022/06/20 01:48:51;;;;;;;4.90;4.13;;;;;;;21.31;100.00;101007.91;5135515;27;20026;-75
2022/06/20 01:51:51;;;;;;;7.10;3.92;;;;;;;21.21;100.00;101007.56;5136157;27;20030;-75
2022/06/20 01:54:42;;;;;;;7.28;4.57;;;;;;;20.99;100.00;101006.19;5135907;27;20443;-74
2022/06/20 01:57:31;;;;;;;6.03;4.20;;;;;;;20.69;100.00;101010.50;5120232;27;20023;-76
2022/06/20 02:00:21;;;;;;;4.82;3.92;;;;;;;20.96;100.00;101007.22;5120234;27;20019;-76
2022/06/20 02:03:12;;;;;;;4.90;3.90;;;;;;;21.16;100.00;100998.97;5135842;27;20466;-77
2022/06/20 02:05:59;;;;;;;7.50;3.90;;;;;;;20.99;100.00;101007.06;5135675;27;20494;-75
2022/06/20 02:08:49;;;;;;;6.18;3.35;;;;;;;20.80;100.00;101006.31;5119969;27;20035;-75
2022/06/20 02:11:39;;;;;;;7.30;3.33;;;;;;;20.72;100.00;101003.19;5119654;27;20068;-75
2022/06/20 02:14:43;;;;;;;5.85;3.13;;;;;;;20.92;100.00;101008.31;5135298;27;20164;-76
2022/06/20 02:17:35;;;;;;;5.13;3.63;;;;;;;20.87;100.00;101005.03;5134665;27;20364;-75
2022/06/20 02:20:27;;;;;;;5.88;3.25;;;;;;;21.01;100.00;100997.16;5138085;27;20118;-75
2022/06/20 02:23:18;;;;;;;6.10;3.45;;;;;;;21.29;100.00;100991.13;5142652;27;20316;-74
2022/06/20 02:26:07;;;;;;;4.82;3.13;;;;;;;20.86;100.00;101005.13;5121972;27;20076;-75
2022/06/20 02:29:06;;;;;;;6.20;3.58;;;;;;;21.18;100.00;100994.41;5119094;27;20023;-76
2022/06/20 02:32:06;;;;;;;5.80;3.15;;;;;;;20.89;100.00;101003.13;5135199;27;20081;-75
2022/06/20 02:34:53;;;;;;;5.45;3.63;;;;;;;20.83;100.00;100992.81;5135134;27;20034;-74
2022/06/20 02:37:38;;;;;;;4.60;3.50;;;;;;;21.46;100.00;100999.88;5120187;27;20107;-76
2022/06/20 02:40:25;;;;;;;7.95;3.53;;;;;;;21.03;100.00;100992.63;5131988;27;20052;-75
2022/06/20 02:43:17;;;;;;;5.18;3.05;;;;;;;20.86;100.00;100995.28;5137525;27;20420;-76
2022/06/20 02:46:07;;;;;;;7.38;3.65;;;;;;;21.16;100.00;100990.97;5136984;27;20044;-75
2022/06/20 02:48:55;;;;;;;5.63;3.47;;;;;;;21.27;100.00;100993.91;5122559;28;20435;-75
2022/06/20 02:51:48;;;;;;;5.95;3.60;;;;;;;20.99;100.00;100992.84;5136407;27;20042;-75
2022/06/20 02:54:36;;;;;;;5.80;3.88;;;;;;;20.96;100.00;100998.34;5142671;28;20019;-76
2022/06/20 02:57:32;;;;;;;6.57;3.90;;;;;;;21.03;100.00;100986.41;5135668;28;20066;-76
2022/06/20 03:00:25;;;;;;;7.32;3.65;;;;;;;21.20;100.00;100992.53;5147444;28;20051;-77
2022/06/20 03:03:22;;;;;;;5.65;3.95;;;;;;;21.36;100.00;100992.50;5146694;28;20023;-75
2022/06/20 03:06:15;;;;;;;7.38;3.60;;;;;;;20.85;100.00;101003.41;5132906;28;20057;-76
2022/06/20 03:09:01;;;;;;;5.43;3.90;;;;;;;20.96;100.00;100985.03;5150002;28;20059;-75
2022/06/20 03:11:47;;;;;;;6.80;3.63;;;;;;;21.06;100.00;100992.41;5133116;28;20023;-76
2022/06/20 03:15:02;;;;;;;5.70;3.75;;;;;;;21.49;100.00;100994.38;5131129;28;20030;-76
2022/06/20 03:17:50;;;;;;;9.02;4.15;;;;;;;21.69;100.00;100995.88;5123773;28;20060;-76
2022/06/20 03:20:36;;;;;;;6.72;3.85;;;;;;;21.80;100.00;100993.47;5140806;28;20023;-76
2022/06/20 03:23:27;;;;;;;6.53;3.63;;;;;;;21.75;100.00;100987.56;5140329;28;20041;-76
2022/06/20 03:26:20;;;;;;;5.82;4.03;;;;;;;21.84;100.00;100985.19;5123709;28;20043;-76
2022/06/20 03:29:11;;;;;;;5.03;3.55;;;;;;;21.97;100.00;100990.66;5127119;28;20023;-76
2022/06/20 03:31:57;;;;;;;6.35;4.03;;;;;;;21.86;100.00;100985.13;5128998;28;20088;-73
2022/06/20 03:34:43;;;;;;;6.93;4.30;;;;;;;22.21;100.00;100982.03;5158527;27;20035;-75
2022/06/20 03:37:29;;;;;;;7.28;3.75;;;;;;;22.18;100.00;100984.88;5151605;28;20019;-76
2022/06/20 03:40:16;;;;;;;6.65;3.67;;;;;;;22.35;100.00;100982.03;5147279;28;20023;-75
2022/06/20 03:43:02;;;;;;;7.55;3.80;;;;;;;22.50;100.00;100988.25;5155046;28;20003;-76
2022/06/20 03:45:53;;;;;;;5.88;3.70;;;;;;;22.49;100.00;100987.44;5152992;28;20083;-77
2022/06/20 03:48:48;;;;;;;6.28;3.63;;;;;;;22.25;100.00;100983.56;5157449;27;20129;-76
2022/06/20 03:51:42;;;;;;;8.10;4.10;;;;;;;22.09;100.00;100988.13;5151213;28;20023;-76
2022/06/20 03:54:37;;;;;;;7.97;4.03;;;;;;;22.23;100.00;100987.28;5144717;28;20030;-75
2022/06/20 03:57:30;;;;;;;12.55;4.20;;;;;;;22.45;100.00;100985.00;5121937;28;20037;-75
2022/06/20 04:00:28;;;;;;;8.40;3.97;;;;;;;22.35;100.00;100982.03;5121707;28;20019;-76
2022/06/20 04:03:22;;;;;;;8.77;4.32;;;;;;;22.35;100.00;100983.84;5137326;27;20023;-76
2022/06/20 04:06:25;;;;;;;5.93;4.05;;;;;;;21.80;100.00;100981.00;5139776;27;20027;-75
2022/06/20 04:12:54;;;;;;;11.50;4.82;;;;;;;22.11;100.00;100978.19;5139192;27;20015;-77
2022/06/20 04:15:51;;;;;;;7.32;4.45;;;;;;;22.15;100.00;100977.03;5124129;27;20462;-75
2022/06/20 04:18:45;;;;;;;8.65;4.65;;;;;;;22.11;100.00;100980.84;5138532;27;20073;-76
2022/06/20 04:21:46;;;;;;;10.18;4.80;;;;;;;21.90;100.00;100975.97;5122820;27;20061;-75
2022/06/20 04:24:54;;;;;;;10.25;4.85;;;;;;;22.31;100.00;100980.50;5138794;27;20099;-74
2022/06/20 04:27:53;;;;;;;8.38;4.55;;;;;;;22.52;100.00;100976.56;5121660;27;20073;-75
2022/06/20 04:30:41;;;;;;;7.68;4.78;;;;;;;22.72;100.00;100977.97;5138275;27;20031;-74
2022/06/20 04:33:45;;;;;;;8.75;5.03;;;;;;;22.69;100.00;100978.16;5137408;27;20045;-74
2022/06/20 04:36:48;;;;;;;8.18;5.25;;;;;;;22.97;100.00;100984.31;5137719;27;20027;-74
2022/06/20 04:39:42;;;;;;;6.38;4.75;;;;;;;22.95;100.00;100988.06;5137260;27;20027;-73
2022/06/20 04:42:37;;;;;;;9.00;5.43;;;;;;;22.97;100.00;100994.16;5137935;27;20031;-74
2022/06/20 04:45:37;;;;;;;7.63;4.38;;;;;;;23.09;100.00;100994.22;5137153;27;20034;-75
2022/06/20 04:48:24;;;;;;;5.18;4.00;;;;;;;23.01;100.00;100990.31;5121866;27;20031;-76
2022/06/20 04:51:16;;;;;;;6.80;4.47;;;;;;;23.02;100.00;101000.06;5136076;27;20078;-74
2022/06/20 04:54:04;;;;;;;9.90;4.50;;;;;;;23.15;100.00;101004.50;5136921;27;20030;-75
2022/06/20 04:56:54;;;;;;;6.25;4.30;;;;;;;22.31;100.00;101003.69;5137148;27;20106;-75
2022/06/20 04:59:41;;;;;;;6.90;4.60;;;;;;;22.92;100.00;101007.81;5137205;27;20356;-75
2022/06/20 05:02:27;;;;;;;11.30;4.20;;;;;;;22.92;100.00;101012.28;5121364;27;20355;-75
2022/06/20 05:05:18;;;;;;;7.35;4.68;;;;;;;23.05;100.00;101011.44;5121243;27;20023;-77
2022/06/20 05:08:07;;;;;;;9.75;3.88;;;;;;;22.92;100.00;101013.16;5120888;27;20400;-76
2022/06/20 05:11:17;;;;;;;7.68;4.18;;;;;;;22.97;100.00;101011.06;5136696;27;20035;-75
2022/06/20 05:14:11;;;;;;;6.75;4.20;;;;;;;23.32;100.00;101008.81;5136116;27;20096;-75
2022/06/20 05:16:58;;;;;;;4.80;4.15;;;;;;;23.30;100.00;101002.69;5145925;27;20111;-74
2022/06/20 05:19:48;;;;;;;7.57;4.72;;;;;;;23.41;100.00;101002.84;5140078;27;20019;-76
2022/06/20 05:22:39;;;;;;;6.78;4.45;;;;;;;23.27;100.00;101011.78;5143087;27;20034;-76
2022/06/20 05:25:27;;;;;;;9.07;4.53;;;;;;;23.08;100.00;101011.19;5107870;27;20026;-75
2022/06/20 05:28:24;;;;;;;9.18;4.20;;;;;;;22.72;100.00;101005.56;5136019;27;20514;-76
2022/06/20 05:31:18;;;;;;;10.48;4.05;;;;;;;23.07;100.00;101005.97;5120767;27;20080;-75
2022/06/20 05:34:13;;;;;;;8.55;3.50;;;;;;;23.25;100.00;101004.81;5134755;27;20038;-75
2022/06/20 05:37:04;;;;;;;6.88;3.75;;;;;;;23.30;100.00;101002.69;5136611;27;20049;-76
2022/06/20 05:40:04;;;;;;;8.52;4.07;;;;;;;23.41;100.00;101000.19;5135924;27;20036;-75
2022/06/20 05:42:50;;;;;;;8.40;4.20;;;;;;;23.82;100.00;100998.28;5136804;27;20126;-75
2022/06/20 05:45:35;;;;;;;5.93;3.85;;;;;;;23.94;100.00;100991.28;5135835;27;20088;-76
2022/06/20 05:48:28;;;;;;;8.30;3.95;;;;;;;23.97;100.00;100989.25;5136696;27;20050;-76
2022/06/20 05:51:18;;;;;;;11.75;3.92;;;;;;;24.25;100.00;100990.88;5119632;27;20026;-76
2022/06/20 05:54:11;;;;;;;8.93;4.30;;;;;;;23.74;100.00;100986.38;5120107;27;20023;-75
2022/06/20 05:57:16;;;;;;;7.55;3.67;;;;;;;23.58;100.00;100980.34;5119852;27;20037;-75
2022/06/20 06:00:21;;;;;;;8.02;3.90;;;;;;;24.46;100.00;100984.00;5138752;27;20029;-76
2022/06/20 06:03:21;;;;;;;7.85;4.07;;;;;;;24.60;100.00;100979.41;5135940;27;20027;-75
2022/06/20 06:06:19;;;;;;;14.45;4.30;;;;;;;24.10;100.00;100974.03;5136347;27;20038;-75
2022/06/20 06:09:45;;;;;;;6.60;4.00;;;;;;;24.73;100.00;100966.88;5120156;27;20049;-75
2022/06/20 06:12:41;;;;;;;7.93;4.63;;;;;;;25.01;100.00;100963.03;5135154;27;20023;-75
2022/06/20 06:15:36;;;;;;;9.75;4.80;;;;;;;24.71;100.00;100970.63;5120092;27;20023;-75
2022/06/20 06:18:22;;;;;;;13.43;8.23;;;;;;;24.76;100.00;100965.78;5135119;27;20019;-76
2022/06/20 06:21:09;;;;;;;13.32;5.45;;;;;;;24.83;100.00;100959.88;5119667;27;20023;-75
2022/06/20 06:23:57;;;;;;;11.15;5.85;;;;;;;24.66;100.00;100965.59;5119416;27;20107;-75
2022/06/20 06:26:47;;;;;;;9.65;5.00;;;;;;;25.14;100.00;100953.13;5134382;27;20039;-75
2022/06/20 06:29:39;;;;;;;10.02;4.85;;;;;;;25.29;100.00;100952.03;5139971;27;20023;-75
2022/06/20 06:32:49;;;;;;;7.70;4.55;;;;;;;25.49;100.00;100938.84;5147960;27;20030;-74
2022/06/20 06:35:40;;;;;;;8.60;4.50;;;;;;;25.64;100.00;100937.66;5151952;27;20019;-75
2022/06/20 06:38:35;;;;;;;7.80;4.40;;;;;;;25.55;100.00;100938.38;5145029;27;20026;-76
2022/06/20 06:41:26;;;;;;;9.35;4.03;;;;;;;25.48;100.00;100925.53;5135850;27;20023;-76
2022/06/20 06:44:25;;;;;;;6.97;3.75;;;;;;;25.55;100.00;100927.63;5140598;27;20087;-75
2022/06/20 06:47:38;;;;;;;7.97;4.22;;;;;;;25.59;100.00;100920.22;5135791;27;20019;-74
2022/06/20 06:51:04;;;;;;;9.85;4.15;;;;;;;25.75;100.00;100912.69;5152959;28;20053;-73
2022/06/20 06:53:55;;;;;;;7.18;3.80;;;;;;;26.04;100.00;100916.69;5150944;28;20026;-73
2022/06/20 06:56:48;;;;;;;8.35;3.47;;;;;;;25.98;100.00;100919.84;5153351;28;20025;-76
2022/06/20 06:59:43;;;;;;;11.05;4.45;;;;;;;25.84;100.00;100920.03;5153167;28;20054;-75
2022/06/20 07:02:35;;;;;;;6.90;4.18;;;;;;;26.21;100.00;100911.72;5153505;28;20027;-77
2022/06/20 07:05:44;;;;;;;8.27;3.88;;;;;;;26.54;94.43;100909.03;5135855;28;20023;-76
2022/06/20 07:08:40;;;;;;;9.43;4.10;;;;;;;26.62;93.40;100908.44;5135206;28;20503;-75
2022/06/20 07:11:26;;;;;;;8.50;4.25;;;;;;;26.48;93.28;100906.81;5147967;28;20516;-73
2022/06/20 07:14:20;;;;;;;10.15;7.90;;;;;;;26.59;95.60;100911.34;5137406;28;20023;-74
2022/06/20 07:17:18;;;;;;;8.90;4.30;;;;;;;26.40;95.31;100911.94;5136438;28;20027;-78
2022/06/20 07:20:05;;;;;;;4.63;3.50;;;;;;;26.65;90.57;100905.50;5152287;28;20007;-77
2022/06/20 07:22:51;;;;;;;7.03;3.13;;;;;;;26.92;83.83;100897.84;5155352;28;20042;-77
2022/06/20 07:25:41;;;;;;;6.93;3.30;;;;;;;27.12;82.98;100895.25;5140931;28;20028;-77
2022/06/20 07:28:44;;;;;;;11.45;3.25;;;;;;;27.33;78.33;100898.03;5155787;28;20030;-76
2022/06/20 07:31:37;;;;;;;5.25;3.03;;;;;;;27.45;78.71;100905.06;5155357;28;20023;-77
2022/06/20 07:34:34;;;;;;;10.63;4.68;;;;;;;27.84;75.09;100903.53;5156247;28;20015;-77
2022/06/20 07:37:31;;;;;;;6.68;4.15;;;;;;;28.02;72.26;100904.63;5155495;27;20061;-76
2022/06/20 07:40:23;;;;;;;6.55;3.00;;;;;;;27.73;71.32;100900.88;5145409;27;20023;-72
2022/06/20 07:43:18;;;;;;;4.30;3.10;;;;;;;28.44;64.19;100904.44;5129739;27;20031;-71
2022/06/20 07:46:12;;;;;;;5.85;3.17;;;;;;;28.28;64.77;100900.53;5144239;27;20023;-71
2022/06/20 07:49:11;;;;;;;4.50;2.80;;;;;;;28.23;60.55;100898.22;5145038;27;20027;-71
2022/06/20 07:52:13;;;;;;;5.55;2.80;;;;;;;28.57;57.11;100893.44;5128539;27;20027;-71
2022/06/20 07:55:07;;;;;;;4.10;2.78;;;;;;;29.04;54.67;100882.78;5128376;27;20027;-72
2022/06/20 07:57:58;;;;;;;5.75;3.40;;;;;;;29.12;55.42;100891.03;5129353;27;20022;-71
2022/06/20 08:00:49;;;;;;;5.43;3.33;;;;;;;28.97;52.75;100892.38;5139425;27;20358;-73
2022/06/20 08:03:48;;;;;;;4.75;3.97;;;;;;;29.47;53.38;100883.25;5142729;27;20019;-72
2022/06/20 08:06:51;;;;;;;5.18;4.30;;;;;;;29.29;51.37;100887.63;5122856;27;20084;-73
2022/06/20 08:09:44;;;;;;;4.70;2.63;;;;;;;29.44;52.59;100886.22;5138811;27;20023;-73
2022/06/20 08:12:38;;;;;;;6.90;3.05;;;;;;;29.35;52.04;100880.81;5140807;27;20447;-73
2022/06/20 08:15:29;;;;;;;3.90;2.80;;;;;;;29.33;51.63;100888.22;5139047;27;20046;-76
2022/06/20 08:18:15;;;;;;;4.55;2.95;;;;;;;29.52;51.03;100883.66;5154475;27;20011;-75
2022/06/20 08:21:10;;;;;;;4.00;2.70;;;;;;;29.63;49.84;100883.53;5148582;27;20042;-75
2022/06/20 08:24:19;;;;;;;7.13;3.00;;;;;;;30.01;50.62;100883.44;5156462;27;20035;-74
2022/06/20 08:27:08;;;;;;;4.55;2.40;;;;;;;30.30;48.93;100878.00;5152280;27;20059;-76
2022/06/20 08:30:19;;;;;;;9.40;6.28;;;;;;;30.47;49.11;100878.06;5154496;27;20057;-77
2022/06/20 08:33:16;;;;;;;5.63;2.92;;;;;;;30.46;47.45;100876.34;5140396;27;20127;-71
2022/06/20 08:36:19;;;;;;;5.97;2.63;;;;;;;30.28;47.73;100886.25;5142565;27;20030;-72
2022/06/20 08:39:18;;;;;;;4.25;2.88;;;;;;;30.45;49.53;100882.75;5144195;27;20295;-73
2022/06/20 08:42:34;;;;;;;3.05;2.50;;;;;;;30.68;47.17;100877.78;5138282;27;20309;-74
2022/06/20 08:45:34;;;;;;;7.65;2.40;;;;;;;30.55;47.50;100872.75;5143998;27;20038;-71
2022/06/20 08:48:33;;;;;;;3.45;2.50;;;;;;;31.03;47.62;100869.78;5122635;27;20463;-77
2022/06/20 08:51:33;;;;;;;3.08;2.67;;;;;;;30.85;47.16;100871.59;5135658;27;20466;-75
2022/06/20 08:54:36;;;;;;;2.50;2.30;;;;;;;30.82;47.07;100872.75;5137428;27;20031;-76
2022/06/20 08:57:43;;;;;;;6.95;4.10;;;;;;;31.07;46.84;100871.16;5136794;27;20261;-77
2022/06/20 09:00:50;;;;;;;3.97;2.88;;;;;;;30.68;44.16;100869.69;5122721;27;20019;-75
2022/06/20 09:04:05;;;;;;;11.45;7.18;;;;;;;30.92;43.71;100867.28;5136938;27;20023;-75
2022/06/20 09:07:39;;;;;;;5.88;4.63;;;;;;;30.86;44.66;100866.03;5120700;27;20034;-73
2022/06/20 09:10:33;;;;;;;16.15;11.82;;;;;;;31.43;43.24;100868.31;5036861;28;20030;-75
2022/06/20 09:13:37;;;;;;;2.97;2.50;;;;;;;31.41;41.19;100874.06;5136674;27;20027;-75
2022/06/20 09:17:05;;;;;;;4.38;2.60;;;;;;;31.54;40.74;100869.09;5136708;27;20106;-77
2022/06/20 09:20:42;;;;;;;4.75;2.72;;;;;;;30.88;41.49;100857.75;5122512;27;20118;-72
2022/06/20 09:23:48;;;;;;;4.43;2.80;;;;;;;31.63;41.57;100863.59;5095751;27;20039;-76
2022/06/20 09:26:52;;;;;;;4.13;2.70;;;;;;;31.37;40.08;100854.53;5121285;27;20047;-72
2022/06/20 09:29:59;;;;;;;2.95;2.35;;;;;;;31.35;41.69;100852.00;5134907;27;20050;-73
2022/06/20 09:33:09;;;;;;;3.65;2.22;;;;;;;31.14;41.50;100842.47;5123230;27;20019;-77
2022/06/20 09:36:10;;;;;;;3.88;2.42;;;;;;;31.48;40.53;100843.47;5136176;27;20146;-72
2022/06/20 09:39:29;;;;;;;6.07;2.50;;;;;;;31.79;41.04;100846.63;5135866;27;20026;-76
2022/06/20 09:42:30;;;;;;;8.82;2.78;;;;;;;31.74;42.72;100846.22;5136486;27;20186;-75
2022/06/20 09:45:33;;;;;;;2.83;2.60;;;;;;;31.93;44.44;100843.34;5135707;27;20069;-74
2022/06/20 09:48:34;;;;;;;5.28;2.80;;;;;;;32.30;44.62;100846.63;5136801;27;20043;-73
2022/06/20 09:52:07;;;;;;;3.33;2.80;;;;;;;31.82;44.54;100840.88;5138305;27;20046;-74
2022/06/20 09:55:06;;;;;;;4.50;2.72;;;;;;;30.85;47.54;100825.59;5035159;27;20037;-77
2022/06/20 09:58:13;;;;;;;2.95;2.67;;;;;;;32.28;44.51;100827.75;5124440;27;20051;-77
2022/06/20 10:01:13;;;;;;;3.83;2.50;;;;;;;32.31;42.57;100823.91;5136556;27;20181;-77
2022/06/20 10:04:08;;;;;;;5.18;2.88;;;;;;;31.88;41.86;100824.81;5136138;27;20069;-77
2022/06/20 10:07:20;;;;;;;4.65;3.42;;;;;;;31.93;44.69;100821.66;5136649;27;20351;-78
2022/06/20 10:10:24;;;;;;;7.20;4.10;;;;;;;32.02;41.91;100817.97;5135678;27;20031;-77
2022/06/20 10:13:27;;;;;;;3.72;2.70;;;;;;;31.64;42.78;100821.06;5120305;27;20030;-77
2022/06/20 10:16:38;;;;;;;6.78;2.80;;;;;;;31.76;43.49;100820.66;5119548;27;20023;-77
2022/06/20 10:20:00;;;;;;;5.60;2.55;;;;;;;31.85;41.78;100816.19;5120295;27;20023;-77
2022/06/20 10:23:00;;;;;;;3.70;2.70;;;;;;;30.71;45.51;100815.31;5135557;27;20050;-77
2022/06/20 10:25:58;;;;;;;4.43;3.25;;;;;;;31.39;45.07;100806.50;5119677;27;20042;-77
2022/06/20 10:28:59;;;;;;;4.43;2.60;;;;;;;31.41;43.53;100807.19;5135117;27;20062;-78
2022/06/20 10:32:02;;;;;;;3.80;2.95;;;;;;;31.19;45.81;100799.53;5135934;27;20051;-78
2022/06/20 10:35:06;;;;;;;3.67;2.60;;;;;;;31.68;44.07;100795.34;5120935;27;20107;-77
2022/06/20 10:38:28;;;;;;;6.63;2.80;;;;;;;31.02;43.93;100787.69;5136138;27;20428;-75
2022/06/20 10:41:31;;;;;;;2.85;2.42;;;;;;;31.62;43.11;100785.16;5132665;27;20035;-71
2022/06/20 10:44:28;;;;;;;3.55;2.67;;;;;;;31.54;42.57;100776.97;5134148;27;20435;-72
2022/06/20 10:47:30;;;;;;;3.15;2.58;;;;;;;31.21;43.35;100784.81;5134225;27;20038;-72
2022/06/20 10:50:32;;;;;;;3.25;2.20;;;;;;;31.21;44.15;100782.13;5135698;27;20019;-72
2022/06/20 10:53:59;;;;;;;5.80;2.50;;;;;;;31.01;42.97;100772.47;5122857;28;20023;-71
2022/06/20 10:56:45;;;;;;;4.15;3.00;;;;;;;31.57;44.61;100772.09;5143422;28;20023;-72
2022/06/20 10:59:50;;;;;;;3.25;2.65;;;;;;;31.12;42.88;100769.53;5156530;28;20035;-72
2022/06/20 11:02:55;;;;;;;13.93;12.05;;;;;;;31.34;44.29;100763.63;5152082;28;20023;-73
2022/06/20 11:05:57;;;;;;;3.00;2.60;;;;;;;31.89;42.69;100761.47;5151451;28;20023;-75
2022/06/20 11:08:56;;;;;;;3.80;2.70;;;;;;;32.26;41.16;100759.25;5150525;28;20047;-76
2022/06/20 11:12:00;;;;;;;5.57;2.63;;;;;;;31.75;40.87;100759.34;5130496;27;20168;-75
2022/06/20 11:14:56;;;;;;;7.13;2.80;;;;;;;32.22;41.99;100763.31;5143231;27;20097;-74
2022/06/20 11:17:52;;;;;;;6.07;3.05;;;;;;;31.77;40.98;100746.50;5149739;27;20161;-75
2022/06/20 11:20:45;;;;;;;4.88;3.72;;;;;;;31.51;41.47;100748.34;5142172;27;20038;-73
2022/06/20 11:23:46;;;;;;;3.15;2.80;;;;;;;32.21;40.90;100739.91;5139692;27;20015;-74
2022/06/20 11:26:48;;;;;;;4.78;3.10;;;;;;;32.10;40.73;100732.06;5139174;27;20130;-76
2022/06/20 11:30:07;;;;;;;4.80;2.90;;;;;;;32.04;41.33;100726.47;5137819;27;20039;-75
2022/06/20 11:33:22;;;;;;;3.13;2.83;;;;;;;31.37;41.06;100726.44;5138754;27;20507;-76
2022/06/20 11:36:11;;;;;;;3.95;3.03;;;;;;;32.35;42.40;100725.78;5124326;27;20028;-77
2022/06/20 11:39:08;;;;;;;6.25;3.35;;;;;;;32.94;40.80;100724.69;5138674;27;20019;-75
2022/06/20 11:42:31;;;;;;;4.45;2.67;;;;;;;32.66;41.11;100715.13;5138062;27;20443;-78
2022/06/20 11:45:26;;;;;;;5.10;3.00;;;;;;;33.14;40.02;100717.91;5138328;27;20051;-78
2022/06/20 11:48:57;;;;;;;3.47;3.00;;;;;;;32.99;40.04;100714.16;5137264;27;20015;-75
2022/06/20 11:52:10;;;;;;;5.30;2.75;;;;;;;32.61;39.80;100699.34;5036414;28;20053;-75
2022/06/20 11:55:16;;;;;;;6.72;3.20;;;;;;;32.32;40.97;100692.69;5021279;28;20057;-75
2022/06/20 11:58:10;;;;;;;6.45;3.30;;;;;;;32.81;40.99;100687.19;5137773;27;20030;-75
2022/06/20 12:01:14;;;;;;;4.13;2.85;;;;;;;33.23;39.44;100690.53;5137833;27;20038;-75
2022/06/20 12:04:00;;;;;;;5.97;3.17;;;;;;;32.92;39.94;100686.00;5121724;27;20019;-71
2022/06/20 12:06:58;;;;;;;6.97;3.08;;;;;;;32.25;39.84;100680.75;5137305;27;20106;-74
2022/06/20 12:10:01;;;;;;;3.40;2.97;;;;;;;31.98;40.18;100687.28;5139334;27;20027;-75
2022/06/20 12:13:07;;;;;;;3.40;2.97;;;;;;;31.83;40.22;100679.97;5138302;27;20034;-72
2022/06/20 12:15:59;;;;;;;6.22;2.95;;;;;;;31.86;40.44;100677.75;5101436;27;20043;-73
2022/06/20 12:25:37;;;;;;;4.63;4.20;;;;;;;32.40;40.49;100680.00;5136398;27;20035;-76
2022/06/20 12:28:27;;;;;;;4.53;3.25;;;;;;;32.55;40.04;100670.19;5137340;27;20467;-74
2022/06/20 12:31:16;;;;;;;5.63;3.20;;;;;;;32.82;40.36;100663.63;5138076;27;20452;-71
2022/06/20 12:34:44;;;;;;;4.13;3.20;;;;;;;32.65;39.74;100667.28;5137106;27;20031;-74
2022/06/20 12:37:36;;;;;;;3.08;2.85;;;;;;;32.49;39.90;100667.28;5137302;27;20122;-74
2022/06/20 12:40:39;;;;;;;5.68;3.60;;;;;;;32.12;41.66;100654.13;5136047;27;20038;-74
2022/06/20 12:43:54;;;;;;;3.95;3.20;;;;;;;32.35;40.29;100663.38;5137320;27;20034;-71
2022/06/20 12:46:52;;;;;;;7.68;5.80;;;;;;;33.21;39.38;100667.28;5136719;27;20035;-74
2022/06/20 12:49:37;;;;;;;7.25;3.67;;;;;;;33.51;38.41;100658.41;5121094;27;20015;-73
2022/06/20 12:52:42;;;;;;;5.93;4.13;;;;;;;33.24;39.22;100662.38;5120954;27;20035;-73
2022/06/20 12:55:49;;;;;;;6.32;4.18;;;;;;;32.94;39.14;100643.25;5121847;27;20027;-73
2022/06/20 12:59:08;;;;;;;5.25;3.70;;;;;;;33.44;37.96;100639.25;5121440;27;20030;-73
2022/06/20 13:02:31;;;;;;;19.50;12.23;;;;;;;33.26;38.27;100637.75;5120880;27;20023;-72
2022/06/20 13:05:37;;;;;;;4.55;3.80;;;;;;;32.06;40.94;100630.38;5136860;27;20027;-72
2022/06/20 13:08:47;;;;;;;6.18;3.80;;;;;;;32.39;39.53;100628.63;5101106;27;20513;-72
2022/06/20 13:12:02;;;;;;;5.45;3.42;;;;;;;32.35;39.33;100621.84;5121700;27;20039;-72
2022/06/20 13:15:41;;;;;;;8.70;4.00;;;;;;;32.10;40.82;100620.91;5136619;27;20031;-77
2022/06/20 13:18:54;;;;;;;6.40;4.38;;;;;;;31.89;40.84;100619.69;5028674;27;20040;-78
2022/06/20 13:21:47;;;;;;;4.25;3.60;;;;;;;32.67;39.00;100611.84;5124279;27;20023;-77
2022/06/20 13:24:49;;;;;;;7.75;3.70;;;;;;;32.10;40.16;100610.06;5140707;27;20446;-78
2022/06/20 13:28:26;;;;;;;4.65;3.60;;;;;;;32.04;40.93;100608.03;5140238;27;20047;-78
2022/06/20 13:31:20;;;;;;;6.85;3.88;;;;;;;31.59;41.22;100593.13;5040522;27;20034;-78
2022/06/20 13:34:19;;;;;;;5.90;3.60;;;;;;;32.54;39.46;100589.78;5140483;27;20035;-78
2022/06/20 13:37:23;;;;;;;6.07;3.80;;;;;;;32.73;40.75;100589.44;5135978;27;20451;-77
2022/06/20 13:40:35;;;;;;;7.18;4.00;;;;;;;32.69;40.38;100589.94;5135819;27;20390;-76
2022/06/20 13:43:52;;;;;;;5.60;3.90;;;;;;;32.72;40.94;100587.75;5135930;27;20023;-76
2022/06/20 13:47:10;;;;;;;9.02;3.80;;;;;;;32.22;40.37;100588.91;5107040;27;20039;-77
2022/06/20 13:50:12;;;;;;;14.68;13.00;;;;;;;32.45;40.32;100584.53;5100888;27;20057;-78